createdAt,value
2023-09-14T00:01:47.495Z,19.74
2023-09-14T00:06:49.525Z,19.75
2023-09-14T00:11:51.190Z,19.79
2023-09-14T00:16:52.841Z,20.00
2023-09-14T00:21:54.450Z,20.00
2023-09-14T00:26:55.989Z,19.73
2023-09-14T00:31:57.497Z,19.59
2023-09-14T00:36:59.066Z,19.82
2023-09-14T00:42:00.657Z,20.06
2023-09-14T00:47:02.179Z,20.30
2023-09-14T00:52:04.098Z,20.25
2023-09-14T00:57:05.654Z,20.12
2023-09-14T01:02:07.239Z,20.24
2023-09-14T01:07:09.859Z,20.15
2023-09-14T01:12:11.388Z,20.17
2023-09-14T01:17:15.619Z,20.30
2023-09-14T01:22:41.207Z,20.24
2023-09-14T01:27:42.738Z,20.14
2023-09-14T01:32:44.313Z,20.16
2023-09-14T01:37:45.884Z,20.22
2023-09-14T01:42:47.419Z,20.45
2023-09-14T01:47:53.494Z,20.29
2023-09-14T01:52:55.526Z,20.30
2023-09-14T01:57:57.068Z,20.18
2023-09-14T02:02:58.680Z,20.19
2023-09-14T02:08:00.255Z,20.36
2023-09-14T02:13:01.788Z,20.55
2023-09-14T02:18:03.389Z,20.62
2023-09-14T02:23:05.007Z,20.60
2023-09-14T02:28:06.519Z,20.65
2023-09-14T02:33:08.984Z,20.73
2023-09-14T02:38:10.648Z,20.66
2023-09-14T02:43:12.265Z,20.57
2023-09-14T02:48:13.801Z,20.68
2023-09-14T02:53:15.302Z,20.62
2023-09-14T02:58:17.262Z,20.55
2023-09-14T03:03:18.846Z,20.50
2023-09-14T03:08:20.392Z,20.27
2023-09-14T03:13:21.889Z,19.70
2023-09-14T03:18:23.419Z,19.79
2023-09-14T03:23:24.942Z,19.73
2023-09-14T03:28:26.457Z,19.86
2023-09-14T03:33:28.162Z,19.84
2023-09-14T03:38:30.070Z,20.17
2023-09-14T03:43:31.561Z,20.45
2023-09-14T03:48:33.048Z,20.44
2023-09-14T03:53:34.568Z,20.57
2023-09-14T03:58:36.074Z,20.60
2023-09-14T04:03:37.891Z,20.62
2023-09-14T04:08:39.422Z,20.56
2023-09-14T04:13:40.940Z,20.51
2023-09-14T04:18:42.524Z,20.63
2023-09-14T04:23:46.335Z,20.65
2023-09-14T04:28:48.244Z,20.71
2023-09-14T04:33:49.945Z,20.79
2023-09-14T04:38:51.482Z,20.44
2023-09-14T04:43:52.995Z,20.49
2023-09-14T04:48:54.570Z,20.80
2023-09-14T04:53:56.090Z,20.98
2023-09-14T04:58:58.107Z,21.03
2023-09-14T05:04:03.581Z,21.07
2023-09-14T05:09:06.693Z,21.00
2023-09-14T05:14:08.186Z,21.09
2023-09-14T05:19:09.722Z,21.19
2023-09-14T05:24:11.287Z,21.17
2023-09-14T05:29:12.793Z,21.19
2023-09-14T05:34:14.353Z,21.15
2023-09-14T05:39:16.027Z,21.15
2023-09-14T05:44:17.530Z,21.21
2023-09-14T05:49:19.839Z,21.14
2023-09-14T05:54:21.558Z,21.24
2023-09-14T05:59:32.108Z,20.89
2023-09-14T06:04:34.994Z,21.00
2023-09-14T06:09:36.558Z,21.16
2023-09-14T06:14:38.587Z,20.91
2023-09-14T06:19:40.034Z,21.04
2023-09-14T06:24:41.552Z,20.67
2023-09-14T06:29:43.126Z,20.55
2023-09-14T06:34:44.633Z,20.56
2023-09-14T06:39:46.301Z,20.80
2023-09-14T06:44:48.008Z,20.88
2023-09-14T06:49:49.513Z,20.86
2023-09-14T06:54:51.051Z,20.89
2023-09-14T06:59:52.806Z,21.01
2023-09-14T07:04:56.983Z,21.07
2023-09-14T07:09:58.585Z,20.70
2023-09-14T07:15:00.158Z,20.79
2023-09-14T07:20:01.732Z,21.02
2023-09-14T07:25:06.080Z,21.17
2023-09-14T07:30:08.108Z,21.39
2023-09-14T07:35:09.815Z,21.48
2023-09-14T07:40:12.191Z,21.65
2023-09-14T07:45:13.825Z,21.98
2023-09-14T07:50:15.347Z,22.11
2023-09-14T07:55:16.969Z,22.24
2023-09-14T08:00:18.537Z,22.30
2023-09-14T08:05:20.230Z,22.35
2023-09-14T08:10:21.950Z,22.67
2023-09-14T08:15:23.476Z,22.60
2023-09-14T08:20:25.920Z,22.69
2023-09-14T08:25:28.755Z,22.96
2023-09-14T08:30:30.278Z,23.03
2023-09-14T08:35:32.777Z,23.10
2023-09-14T08:40:34.712Z,23.20
2023-09-14T08:45:36.250Z,23.26
2023-09-14T08:50:37.740Z,23.38
2023-09-14T08:55:39.470Z,23.33
2023-09-14T09:00:41.674Z,22.99
2023-09-14T09:05:44.194Z,23.55
2023-09-14T09:10:45.745Z,23.18
2023-09-14T09:15:48.347Z,23.54
2023-09-14T09:20:51.982Z,23.81
2023-09-14T09:25:53.876Z,23.43
2023-09-14T09:30:55.674Z,23.64
2023-09-14T09:35:57.217Z,23.68
2023-09-14T09:41:00.154Z,23.68
2023-09-14T09:46:01.890Z,24.01
2023-09-14T09:51:03.453Z,24.21
2023-09-14T09:56:05.074Z,24.18
2023-09-14T10:01:08.359Z,24.37
2023-09-14T10:06:10.275Z,24.20
2023-09-14T10:11:11.974Z,24.71
2023-09-14T10:16:13.599Z,24.42
2023-09-14T10:21:15.182Z,24.67
2023-09-14T10:26:16.904Z,24.85
2023-09-14T10:31:18.544Z,24.78
2023-09-14T10:36:20.401Z,24.64
2023-09-14T10:41:23.274Z,24.76
2023-09-14T10:46:26.746Z,23.26
2023-09-14T10:51:29.612Z,24.07
2023-09-14T10:56:35.143Z,24.70
2023-09-14T11:01:54.712Z,24.02
2023-09-14T11:06:59.362Z,24.22
2023-09-14T11:12:05.703Z,24.60
2023-09-14T11:17:08.683Z,24.86
2023-09-14T11:22:15.509Z,25.23
2023-09-14T11:27:21.315Z,24.92
2023-09-14T11:32:29.812Z,25.38
2023-09-14T11:37:35.034Z,25.39
2023-09-14T11:43:37.499Z,25.76
2023-09-14T11:53:51.160Z,26.42
2023-09-14T11:58:52.835Z,25.24
2023-09-14T12:03:55.020Z,26.03
2023-09-14T12:08:56.779Z,26.20
2023-09-14T12:13:58.347Z,25.37
2023-09-14T12:18:59.796Z,26.17
2023-09-14T12:24:03.008Z,26.45
2023-09-14T12:29:04.609Z,26.40
2023-09-14T12:34:06.240Z,26.37
2023-09-14T12:39:13.448Z,26.52
2023-09-14T12:44:14.968Z,26.66
2023-09-14T12:49:17.672Z,26.65
2023-09-14T12:54:26.798Z,26.91
2023-09-14T12:59:28.424Z,27.10
2023-09-14T13:04:31.320Z,27.02
2023-09-14T13:09:33.532Z,26.05
2023-09-14T13:14:38.274Z,26.68
2023-09-14T13:19:39.852Z,26.86
2023-09-14T13:24:41.951Z,26.55
2023-09-14T13:29:43.544Z,26.70
2023-09-14T13:34:50.305Z,26.76
2023-09-14T13:39:52.185Z,26.99
2023-09-14T13:44:53.864Z,27.08
2023-09-14T13:49:55.429Z,26.76
2023-09-14T13:54:57.015Z,26.66
2023-09-14T14:00:06.124Z,26.29
2023-09-14T14:05:08.621Z,26.29
2023-09-14T14:10:10.304Z,26.40
2023-09-14T14:15:13.301Z,26.56
2023-09-14T14:20:15.573Z,26.16
2023-09-14T14:25:17.534Z,26.37
2023-09-14T14:30:19.690Z,26.39
2023-09-14T14:35:21.782Z,26.41
2023-09-14T14:45:28.750Z,26.28
2023-09-14T14:50:30.261Z,26.27
2023-09-14T14:55:32.277Z,25.99
2023-09-14T15:00:34.102Z,26.05
2023-09-14T15:05:35.598Z,26.06
2023-09-14T15:10:37.089Z,25.78
2023-09-14T15:15:38.856Z,25.72
2023-09-14T15:20:40.398Z,25.58
2023-09-14T15:25:41.891Z,25.61
2023-09-14T15:30:43.415Z,25.74
2023-09-14T15:35:44.916Z,25.61
2023-09-14T15:40:53.054Z,25.49
2023-09-14T15:45:58.471Z,25.29
2023-09-14T15:51:00.158Z,25.12
2023-09-14T15:56:01.679Z,24.97
2023-09-14T16:01:03.240Z,24.94
2023-09-14T16:06:06.907Z,24.92
2023-09-14T16:11:08.405Z,24.79
2023-09-14T16:16:10.590Z,24.69
2023-09-14T16:21:12.221Z,24.60
2023-09-14T16:26:13.775Z,24.55
2023-09-14T16:31:15.437Z,24.27
2023-09-14T16:36:17.286Z,24.16
2023-09-14T16:41:18.641Z,24.07
2023-09-14T16:46:20.473Z,24.01
2023-09-14T16:51:23.235Z,23.85
2023-09-14T16:56:26.374Z,23.73
2023-09-14T17:01:27.898Z,23.58
2023-09-14T17:06:29.453Z,23.58
2023-09-14T17:11:31.083Z,23.18
2023-09-14T17:16:33.072Z,23.42
2023-09-14T17:21:34.680Z,23.43
2023-09-14T17:26:36.692Z,23.28
2023-09-14T17:31:38.302Z,23.31
2023-09-14T17:36:40.135Z,23.26
2023-09-14T17:41:41.714Z,22.77
2023-09-14T17:46:43.326Z,22.96
2023-09-14T17:51:44.869Z,22.74
2023-09-14T17:56:46.368Z,22.65
2023-09-14T18:01:49.139Z,22.77
2023-09-14T18:06:50.771Z,22.74
2023-09-14T18:11:52.295Z,22.47
2023-09-14T18:16:57.540Z,22.27
2023-09-14T18:21:59.203Z,22.34
2023-09-14T18:27:00.880Z,22.46
2023-09-14T18:32:02.750Z,22.43
2023-09-14T18:37:04.929Z,22.45
2023-09-14T18:42:06.518Z,22.44
2023-09-14T18:47:10.326Z,22.20
2023-09-14T18:52:11.854Z,22.38
2023-09-14T18:57:13.383Z,22.43
2023-09-14T19:02:16.002Z,22.46
2023-09-14T19:07:19.411Z,22.40
2023-09-14T19:12:20.982Z,22.37
2023-09-14T19:17:22.521Z,22.30
2023-09-14T19:22:24.028Z,22.41
2023-09-14T19:27:25.617Z,22.42
2023-09-14T19:32:28.411Z,22.43
2023-09-14T19:37:30.362Z,22.48
2023-09-14T19:42:31.895Z,22.46
2023-09-14T19:47:34.257Z,22.32
2023-09-14T19:52:36.418Z,22.26
2023-09-14T19:57:38.067Z,22.24
2023-09-14T20:02:39.725Z,22.39
2023-09-14T20:07:41.272Z,22.33
2023-09-14T20:12:42.800Z,21.87
2023-09-14T20:17:44.584Z,22.20
2023-09-14T20:22:48.620Z,22.19
2023-09-14T20:27:50.159Z,22.20
2023-09-14T20:32:51.766Z,22.27
2023-09-14T20:37:53.371Z,22.09
2023-09-14T20:42:54.940Z,22.07
2023-09-14T20:47:58.002Z,22.10
2023-09-14T20:52:59.525Z,22.06
2023-09-14T21:03:03.145Z,22.00
2023-09-14T21:08:07.065Z,21.93
2023-09-14T21:13:08.604Z,21.99
2023-09-14T21:18:10.151Z,21.96
2023-09-14T21:23:14.396Z,21.69
2023-09-14T21:28:15.943Z,21.74
2023-09-14T21:33:17.492Z,21.73
2023-09-14T21:38:19.215Z,21.87
2023-09-14T21:43:20.721Z,21.57
2023-09-14T21:48:22.730Z,21.63
2023-09-14T21:53:24.113Z,21.59
2023-09-14T21:58:25.649Z,21.48
2023-09-14T22:03:44.875Z,21.40
2023-09-14T22:08:50.878Z,21.38
2023-09-14T22:13:52.397Z,21.63
2023-09-14T22:18:53.973Z,21.53
2023-09-14T22:23:55.496Z,21.52
2023-09-14T22:28:57.202Z,21.37
2023-09-14T22:33:58.746Z,21.45
2023-09-14T22:39:00.326Z,21.44
2023-09-14T22:44:01.823Z,21.49
2023-09-14T22:49:03.767Z,21.34
2023-09-14T22:54:05.413Z,21.14
2023-09-14T22:59:07.181Z,21.34
2023-09-14T23:04:08.821Z,21.04
2023-09-14T23:09:10.364Z,21.04
2023-09-14T23:14:18.576Z,21.03
2023-09-14T23:19:20.679Z,21.21
2023-09-14T23:24:22.266Z,21.29
2023-09-14T23:29:23.814Z,21.24
2023-09-14T23:34:25.555Z,21.35
2023-09-14T23:39:27.081Z,21.09
2023-09-14T23:44:28.615Z,21.25
2023-09-14T23:49:30.164Z,21.27
2023-09-14T23:54:31.694Z,21.08
2023-09-14T23:59:33.217Z,21.20
